Time;durP1;ratioP1;P1;durP2;ratioP2;P2;SDS_P1;SDS_P2;PMS_P1;PMS_P2;Temp;Humidity;BMP_temperature;BMP_pressure;BME280_temperature;BME280_humidity;BME280_pressure;Samples;Min_cycle;Max_cycle;Signal;HPM_P1;HPM_P2
2021/03/07 00:01:17;;;;;;;6.35;2.55;;;4.40;76.70;;;;;;4994514;28;20478;-86
2021/03/07 00:03:43;;;;;;;7.03;3.08;;;4.40;76.80;;;;;;4994591;28;20026;-86
2021/03/07 00:06:08;;;;;;;6.78;2.83;;;4.40;76.90;;;;;;5025265;28;20053;-86
2021/03/07 00:08:35;;;;;;;7.10;2.78;;;4.40;76.90;;;;;;5014488;28;20444;-86
2021/03/07 00:11:01;;;;;;;6.18;2.90;;;4.30;77.10;;;;;;5014253;28;20021;-86
2021/03/07 00:13:27;;;;;;;10.90;3.05;;;4.30;77.40;;;;;;5012798;28;20164;-86
2021/03/07 00:15:52;;;;;;;6.20;2.83;;;4.30;77.50;;;;;;4990391;28;20350;-86
2021/03/07 00:18:18;;;;;;;5.95;3.05;;;4.30;77.50;;;;;;5036368;28;20060;-86
2021/03/07 00:20:43;;;;;;;5.40;3.00;;;4.20;77.50;;;;;;5018265;28;20030;-86
2021/03/07 00:23:09;;;;;;;8.43;4.10;;;4.20;77.60;;;;;;5047899;28;20377;-86
2021/03/07 00:25:35;;;;;;;6.60;2.72;;;4.20;77.60;;;;;;5040935;28;20484;-86
2021/03/07 00:28:00;;;;;;;6.00;2.50;;;4.20;77.80;;;;;;5054809;28;20036;-86
2021/03/07 00:30:26;;;;;;;5.15;2.80;;;4.20;77.90;;;;;;5054327;28;20041;-86
2021/03/07 00:32:52;;;;;;;5.00;2.72;;;4.10;77.90;;;;;;5037935;28;20112;-87
2021/03/07 00:35:17;;;;;;;5.82;2.53;;;4.10;78.00;;;;;;5054582;28;20035;-86
2021/03/07 00:37:43;;;;;;;6.78;2.92;;;4.10;78.10;;;;;;5023664;28;20104;-85
2021/03/07 00:40:10;;;;;;;5.55;2.78;;;4.10;78.20;;;;;;5055545;28;20048;-86
2021/03/07 00:42:40;;;;;;;7.32;3.13;;;4.00;78.20;;;;;;5055289;28;20033;-86
2021/03/07 00:45:07;;;;;;;6.40;3.25;;;4.00;78.30;;;;;;5035149;28;20363;-86
2021/03/07 00:47:32;;;;;;;7.13;2.97;;;4.00;78.40;;;;;;5030867;28;20025;-86
2021/03/07 00:49:58;;;;;;;5.53;2.75;;;4.00;78.60;;;;;;5054565;28;20366;-86
2021/03/07 00:52:24;;;;;;;9.15;2.58;;;3.90;78.70;;;;;;5053962;28;20112;-87
2021/03/07 00:54:49;;;;;;;6.38;2.38;;;3.90;78.90;;;;;;5037577;28;20036;-86
2021/03/07 00:57:15;;;;;;;7.43;3.80;;;3.90;79.00;;;;;;5037494;28;20547;-86
2021/03/07 00:59:40;;;;;;;7.75;3.85;;;3.80;78.90;;;;;;5023003;28;20560;-86
2021/03/07 01:02:06;;;;;;;6.28;3.22;;;3.70;79.50;;;;;;5055503;28;20037;-86
2021/03/07 01:04:32;;;;;;;7.05;2.85;;;3.70;79.60;;;;;;5053421;28;20373;-86
2021/03/07 01:06:57;;;;;;;5.93;2.95;;;3.60;79.70;;;;;;5046631;28;20029;-86
2021/03/07 01:09:23;;;;;;;6.82;3.10;;;3.60;79.70;;;;;;5017236;28;20033;-86
2021/03/07 01:11:48;;;;;;;6.25;2.85;;;3.60;79.60;;;;;;5001091;28;20481;-85
2021/03/07 01:14:14;;;;;;;6.43;2.60;;;3.60;79.60;;;;;;5035204;28;20121;-86
2021/03/07 01:16:43;;;;;;;4.85;2.72;;;3.60;79.60;;;;;;5052883;28;20033;-86
2021/03/07 01:19:08;;;;;;;4.68;2.30;;;3.50;79.60;;;;;;5053809;28;20035;-86
2021/03/07 01:21:34;;;;;;;8.02;3.40;;;3.50;79.60;;;;;;5055232;28;20033;-86
2021/03/07 01:24:00;;;;;;;6.55;3.10;;;3.50;80.10;;;;;;5053461;28;20033;-85
2021/03/07 01:26:25;;;;;;;4.80;2.92;;;3.40;80.20;;;;;;5053725;28;20029;-86
2021/03/07 01:28:51;;;;;;;6.32;2.95;;;3.40;80.30;;;;;;5040587;28;20041;-86
2021/03/07 01:31:16;;;;;;;5.88;2.53;;;3.30;80.40;;;;;;5033660;28;20053;-86
2021/03/07 01:33:42;;;;;;;6.68;2.75;;;3.30;80.40;;;;;;5044184;28;20025;-86
2021/03/07 01:36:07;;;;;;;5.65;2.88;;;3.40;80.50;;;;;;5036920;28;20029;-86
2021/03/07 01:38:33;;;;;;;6.78;3.10;;;3.30;80.40;;;;;;5027896;28;20029;-87
2021/03/07 01:40:59;;;;;;;5.88;3.00;;;3.30;80.40;;;;;;5035056;28;20080;-87
2021/03/07 01:43:26;;;;;;;4.22;2.70;;;3.30;80.40;;;;;;5054440;28;20071;-85
2021/03/07 01:45:52;;;;;;;6.97;3.00;;;3.20;80.40;;;;;;5054015;28;20032;-86
2021/03/07 01:48:19;;;;;;;6.10;2.92;;;3.20;80.40;;;;;;5022553;28;20389;-86
2021/03/07 01:50:48;;;;;;;6.72;2.83;;;3.20;81.00;;;;;;5043770;28;20172;-86
2021/03/07 01:53:15;;;;;;;5.78;2.78;;;3.20;80.50;;;;;;5033290;28;20017;-86
2021/03/07 01:55:42;;;;;;;7.72;3.55;;;3.10;80.40;;;;;;5044005;28;20025;-86
2021/03/07 01:58:17;;;;;;;5.82;2.90;;;3.10;80.60;;;;;;5049388;28;20055;-86
2021/03/07 02:00:44;;;;;;;5.78;2.90;;;3.10;80.60;;;;;;5045547;28;20057;-86
2021/03/07 02:03:09;;;;;;;5.72;2.63;;;3.10;80.70;;;;;;5031257;28;20024;-86
2021/03/07 02:05:35;;;;;;;4.70;2.90;;;3.00;80.70;;;;;;5035432;28;20067;-86
2021/03/07 02:08:01;;;;;;;6.80;3.42;;;3.00;80.70;;;;;;5052870;28;20025;-86
2021/03/07 02:10:39;;;;;;;5.63;2.90;;;3.00;80.80;;;;;;5022171;28;20367;-86
2021/03/07 02:13:17;;;;;;;5.13;2.83;;;3.00;80.90;;;;;;5053995;28;20064;-86
2021/03/07 02:15:46;;;;;;;6.07;2.90;;;3.00;81.00;;;;;;5003116;28;20051;-86
2021/03/07 02:18:13;;;;;;;5.03;2.78;;;2.90;81.00;;;;;;5033995;28;20024;-86
2021/03/07 02:20:56;;;;;;;7.32;3.10;;;2.90;81.10;;;;;;5051317;28;20029;-86
2021/03/07 02:23:24;;;;;;;5.65;2.65;;;2.90;81.20;;;;;;5053851;28;20112;-87
2021/03/07 02:25:51;;;;;;;5.60;3.00;;;2.90;81.20;;;;;;5039523;28;20055;-86
2021/03/07 02:28:18;;;;;;;5.60;2.70;;;2.90;81.30;;;;;;5054158;28;20091;-86
2021/03/07 02:30:44;;;;;;;6.18;3.10;;;2.90;81.30;;;;;;5035461;28;20465;-86
2021/03/07 02:33:32;;;;;;;5.55;3.05;;;2.80;81.30;;;;;;5052078;28;20505;-86
2021/03/07 02:36:19;;;;;;;4.72;2.80;;;2.80;81.30;;;;;;5053484;28;20484;-86
2021/03/07 02:38:48;;;;;;;4.95;2.72;;;2.80;81.40;;;;;;5022837;28;20149;-86
2021/03/07 02:41:16;;;;;;;5.10;2.90;;;2.80;81.40;;;;;;5032249;28;20044;-86
2021/03/07 02:43:45;;;;;;;4.72;2.50;;;2.70;81.40;;;;;;5044761;28;20099;-87
2021/03/07 02:46:14;;;;;;;4.85;2.47;;;2.70;81.50;;;;;;5035180;28;20119;-86
2021/03/07 02:48:41;;;;;;;5.13;2.47;;;2.70;81.50;;;;;;5053305;28;20029;-87
2021/03/07 02:51:09;;;;;;;5.93;2.42;;;2.70;81.60;;;;;;5049850;28;20032;-86
2021/03/07 02:53:35;;;;;;;3.67;2.10;;;2.60;81.60;;;;;;5032203;28;20271;-86
2021/03/07 02:56:08;;;;;;;5.28;2.45;;;2.60;81.70;;;;;;5015742;28;20600;-87
2021/03/07 02:58:36;;;;;;;4.20;2.50;;;2.60;81.70;;;;;;5034887;28;20025;-86
2021/03/07 03:01:05;;;;;;;4.50;2.33;;;2.50;81.70;;;;;;5052798;28;20102;-87
2021/03/07 03:03:41;;;;;;;3.70;2.05;;;2.60;81.80;;;;;;5028969;28;20041;-86
2021/03/07 03:06:09;;;;;;;3.92;1.83;;;2.50;81.90;;;;;;5031853;28;20128;-86
2021/03/07 03:08:36;;;;;;;2.92;1.90;;;2.50;81.90;;;;;;5001878;28;20044;-87
2021/03/07 03:11:02;;;;;;;4.70;2.50;;;2.50;82.00;;;;;;5015268;28;20076;-87
2021/03/07 03:13:30;;;;;;;6.60;2.22;;;2.40;82.00;;;;;;5014926;28;20377;-86
2021/03/07 03:15:57;;;;;;;3.75;2.03;;;2.40;82.10;;;;;;5014976;28;20056;-87
2021/03/07 03:18:26;;;;;;;4.18;2.05;;;2.40;82.00;;;;;;5044486;28;20032;-86
2021/03/07 03:20:56;;;;;;;4.32;2.08;;;2.40;82.10;;;;;;5038483;28;20029;-86
2021/03/07 03:23:22;;;;;;;4.40;2.30;;;2.40;82.20;;;;;;5034507;28;20108;-86
2021/03/07 03:25:48;;;;;;;4.53;2.40;;;2.40;82.20;;;;;;5017898;28;20120;-86
2021/03/07 03:28:14;;;;;;;4.38;2.20;;;2.30;82.30;;;;;;5049121;28;20088;-86
2021/03/07 03:30:40;;;;;;;4.20;2.17;;;2.30;82.20;;;;;;5052427;28;20416;-86
2021/03/07 03:33:06;;;;;;;4.53;2.33;;;2.30;82.30;;;;;;5026544;28;20060;-86
2021/03/07 03:35:31;;;;;;;5.13;2.38;;;2.20;82.30;;;;;;5030948;28;20032;-86
2021/03/07 03:37:57;;;;;;;5.63;2.63;;;2.30;82.30;;;;;;5051077;28;20521;-86
2021/03/07 03:40:26;;;;;;;5.60;2.85;;;2.20;82.30;;;;;;5051101;28;20548;-87
2021/03/07 03:42:56;;;;;;;5.07;2.90;;;2.20;82.40;;;;;;5034616;28;20574;-86
2021/03/07 03:45:23;;;;;;;5.15;2.53;;;2.20;82.40;;;;;;5024572;28;20457;-86
2021/03/07 03:47:54;;;;;;;4.00;2.25;;;2.20;82.40;;;;;;5050382;28;20543;-87
2021/03/07 03:50:20;;;;;;;5.38;3.00;;;2.10;82.50;;;;;;5037955;28;20070;-86
2021/03/07 03:52:49;;;;;;;5.25;2.88;;;2.10;82.50;;;;;;5052189;28;20028;-86
2021/03/07 03:55:19;;;;;;;6.30;2.85;;;2.10;83.00;;;;;;5052010;28;20116;-87
2021/03/07 03:57:48;;;;;;;4.90;2.67;;;2.10;82.50;;;;;;5023613;28;20104;-88
2021/03/07 04:00:18;;;;;;;5.15;2.72;;;2.10;82.50;;;;;;4997897;28;20288;-86
2021/03/07 04:02:45;;;;;;;3.97;2.30;;;2.00;82.50;;;;;;5041190;28;20028;-86
2021/03/07 04:05:12;;;;;;;4.20;2.53;;;2.00;82.50;;;;;;5036275;28;20478;-86
2021/03/07 04:07:39;;;;;;;5.57;2.78;;;2.00;82.60;;;;;;5052551;28;20024;-86
2021/03/07 04:10:06;;;;;;;5.68;2.63;;;2.00;82.60;;;;;;5050801;28;20040;-86
2021/03/07 04:12:32;;;;;;;6.40;2.40;;;1.90;82.70;;;;;;5051786;28;20068;-86
2021/03/07 04:14:59;;;;;;;4.68;2.50;;;2.00;82.80;;;;;;5050977;28;20087;-86
2021/03/07 04:17:26;;;;;;;4.53;2.38;;;1.90;82.70;;;;;;5020179;28;20029;-87
2021/03/07 04:19:53;;;;;;;4.60;2.50;;;1.90;82.70;;;;;;5042127;28;20136;-87
2021/03/07 04:22:19;;;;;;;3.42;2.20;;;1.90;82.80;;;;;;5000156;28;20029;-87
2021/03/07 04:24:46;;;;;;;5.38;2.65;;;1.80;82.70;;;;;;5034367;28;20033;-86
2021/03/07 04:27:13;;;;;;;3.97;2.25;;;1.80;82.80;;;;;;5052236;28;20052;-87
2021/03/07 04:29:39;;;;;;;4.70;2.70;;;1.80;82.90;;;;;;5027930;28;20183;-87
2021/03/07 04:32:06;;;;;;;5.35;2.22;;;1.80;82.80;;;;;;5044753;28;20025;-87
2021/03/07 04:34:34;;;;;;;5.10;2.40;;;1.80;82.90;;;;;;5033086;28;20052;-87
2021/03/07 04:36:59;;;;;;;5.40;2.45;;;1.80;82.80;;;;;;5034013;28;20033;-87
2021/03/07 04:39:25;;;;;;;5.60;2.65;;;1.80;82.80;;;;;;5049656;28;20388;-87
2021/03/07 04:41:51;;;;;;;5.90;2.60;;;1.70;82.80;;;;;;5039812;28;20039;-87
2021/03/07 04:44:17;;;;;;;6.47;3.00;;;1.70;82.80;;;;;;5034577;28;20079;-87
2021/03/07 04:46:42;;;;;;;6.50;3.17;;;1.70;82.80;;;;;;5052487;28;20400;-87
2021/03/07 04:49:08;;;;;;;5.18;2.80;;;1.70;82.90;;;;;;5039065;28;20030;-87
2021/03/07 04:51:34;;;;;;;5.72;2.95;;;1.70;82.90;;;;;;5049673;28;20037;-87
2021/03/07 04:53:59;;;;;;;8.05;3.85;;;1.70;83.10;;;;;;5033866;28;20119;-87
2021/03/07 04:56:29;;;;;;;8.30;3.03;;;1.60;83.10;;;;;;5048491;28;20065;-87
2021/03/07 04:58:55;;;;;;;8.02;3.20;;;1.70;83.20;;;;;;5030375;28;20029;-86
2021/03/07 05:01:20;;;;;;;6.60;3.00;;;1.60;83.10;;;;;;5046516;28;20044;-87
2021/03/07 05:03:46;;;;;;;8.27;3.63;;;1.60;83.20;;;;;;5001652;28;20021;-86
2021/03/07 05:06:12;;;;;;;7.85;3.20;;;1.60;83.30;;;;;;5033969;28;20053;-86
2021/03/07 05:08:38;;;;;;;7.63;3.90;;;1.60;83.30;;;;;;5017870;28;20036;-87
2021/03/07 05:11:04;;;;;;;7.03;3.58;;;1.60;83.40;;;;;;5017438;28;20091;-87
2021/03/07 05:13:29;;;;;;;9.95;3.50;;;1.60;83.40;;;;;;5049586;28;20033;-86
2021/03/07 05:15:55;;;;;;;8.20;3.75;;;1.60;83.40;;;;;;5034019;28;20037;-87
2021/03/07 05:18:21;;;;;;;6.20;3.47;;;1.60;83.50;;;;;;5032235;28;20025;-87
2021/03/07 05:20:47;;;;;;;8.18;3.85;;;1.60;83.60;;;;;;5054206;28;20086;-87
2021/03/07 05:23:12;;;;;;;6.82;3.20;;;1.60;83.70;;;;;;5024929;28;20033;-87
2021/03/07 05:25:38;;;;;;;7.60;3.60;;;1.60;83.70;;;;;;5000986;28;20068;-87
2021/03/07 05:28:04;;;;;;;7.25;3.80;;;1.60;83.80;;;;;;5027979;28;20029;-87
2021/03/07 05:30:30;;;;;;;9.52;4.32;;;1.60;83.90;;;;;;5052925;28;20029;-87
2021/03/07 05:32:55;;;;;;;5.50;2.83;;;1.60;84.00;;;;;;5000715;28;20452;-87
2021/03/07 05:35:22;;;;;;;7.03;2.97;;;1.50;83.90;;;;;;5017641;28;20039;-87
2021/03/07 05:37:48;;;;;;;5.30;3.03;;;1.50;84.00;;;;;;5036239;28;20481;-87
2021/03/07 05:40:14;;;;;;;5.78;3.35;;;1.50;84.00;;;;;;5053388;28;20029;-87
2021/03/07 05:42:40;;;;;;;6.60;3.35;;;1.50;84.00;;;;;;5054726;28;20143;-86
2021/03/07 05:45:06;;;;;;;6.80;3.28;;;1.50;84.10;;;;;;5053526;28;20039;-87
2021/03/07 05:47:32;;;;;;;7.40;3.88;;;1.50;84.20;;;;;;5053576;28;20033;-86
2021/03/07 05:49:57;;;;;;;6.75;3.20;;;1.50;84.20;;;;;;5048871;28;20032;-87
2021/03/07 05:52:24;;;;;;;6.03;2.80;;;1.50;84.20;;;;;;5001230;28;20041;-87
2021/03/07 05:54:52;;;;;;;6.72;3.00;;;1.50;84.30;;;;;;5051674;28;20035;-87
2021/03/07 05:57:21;;;;;;;4.43;2.50;;;1.50;84.30;;;;;;5054570;28;20056;-87
2021/03/07 05:59:50;;;;;;;5.68;2.80;;;1.50;84.40;;;;;;5052960;28;20032;-87
2021/03/07 06:02:16;;;;;;;6.25;2.80;;;1.40;84.30;;;;;;5042696;28;20025;-87
2021/03/07 06:04:43;;;;;;;8.05;3.25;;;1.40;84.40;;;;;;5036772;28;20112;-86
2021/03/07 06:07:09;;;;;;;9.43;2.92;;;1.40;84.50;;;;;;5054113;28;20027;-87
2021/03/07 06:09:35;;;;;;;5.70;2.78;;;1.50;84.50;;;;;;5024281;28;20128;-87
2021/03/07 06:12:02;;;;;;;5.53;3.05;;;1.40;84.50;;;;;;5032510;28;20021;-87
2021/03/07 06:14:31;;;;;;;6.55;2.80;;;1.40;84.60;;;;;;5044930;28;20025;-87
2021/03/07 06:17:05;;;;;;;5.47;2.70;;;1.40;84.80;;;;;;5033547;28;20017;-87
2021/03/07 06:19:52;;;;;;;4.13;2.53;;;1.40;84.80;;;;;;5034432;28;20033;-87
2021/03/07 06:22:18;;;;;;;6.65;2.80;;;1.40;84.80;;;;;;5048241;28;20081;-87
2021/03/07 06:24:43;;;;;;;5.43;2.65;;;1.50;85.00;;;;;;5000099;28;20060;-86
2021/03/07 06:27:11;;;;;;;5.10;2.35;;;1.50;85.10;;;;;;5032860;28;20025;-87
2021/03/07 06:29:58;;;;;;;5.88;2.85;;;1.50;85.50;;;;;;5053853;28;20047;-86
2021/03/07 06:32:26;;;;;;;6.90;2.83;;;1.50;85.40;;;;;;5005852;28;20393;-87
2021/03/07 06:34:53;;;;;;;5.80;2.53;;;1.50;85.60;;;;;;5054202;28;20021;-87
2021/03/07 06:37:19;;;;;;;5.75;2.80;;;1.50;85.60;;;;;;5023266;28;20434;-87
2021/03/07 06:39:45;;;;;;;5.78;2.83;;;1.50;85.80;;;;;;5016680;28;20095;-86
2021/03/07 06:42:12;;;;;;;6.55;3.13;;;1.50;86.00;;;;;;5043537;28;20030;-87
2021/03/07 06:44:50;;;;;;;6.30;2.63;;;1.50;86.00;;;;;;5050779;28;20538;-86
2021/03/07 06:47:15;;;;;;;6.03;2.60;;;1.50;86.00;;;;;;5015825;28;20030;-87
2021/03/07 06:49:41;;;;;;;5.63;2.55;;;1.60;86.10;;;;;;5035123;28;20044;-87
2021/03/07 06:52:20;;;;;;;6.57;2.85;;;1.60;86.30;;;;;;5043796;28;20037;-87
2021/03/07 06:55:12;;;;;;;5.15;2.58;;;1.60;86.50;;;;;;5049776;28;20029;-87
2021/03/07 06:57:37;;;;;;;5.25;2.40;;;1.60;86.50;;;;;;5023873;28;20052;-87
2021/03/07 07:00:07;;;;;;;6.70;3.95;;;1.70;86.60;;;;;;5047175;28;20033;-87
2021/03/07 07:02:32;;;;;;;5.43;2.88;;;1.60;86.70;;;;;;5043777;28;20192;-87
2021/03/07 07:04:58;;;;;;;5.22;2.90;;;1.70;86.80;;;;;;5051460;28;20076;-87
2021/03/07 07:07:25;;;;;;;4.95;2.53;;;1.70;86.90;;;;;;5034896;28;20079;-87
2021/03/07 07:10:03;;;;;;;5.50;2.50;;;1.70;86.90;;;;;;5038900;28;20035;-87
2021/03/07 07:12:29;;;;;;;5.13;2.50;;;1.70;87.00;;;;;;5052576;28;20013;-87
2021/03/07 07:15:10;;;;;;;6.20;2.65;;;1.80;87.10;;;;;;5038909;28;20033;-87
2021/03/07 07:17:36;;;;;;;4.75;2.75;;;1.80;87.10;;;;;;5019509;28;20465;-87
2021/03/07 07:20:06;;;;;;;8.23;3.63;;;1.80;87.20;;;;;;5034644;28;20029;-87
2021/03/07 07:22:31;;;;;;;4.80;2.38;;;1.90;87.40;;;;;;5046686;28;20104;-87
2021/03/07 07:24:57;;;;;;;5.30;2.65;;;1.90;87.50;;;;;;5014473;28;20124;-87
2021/03/07 07:27:23;;;;;;;6.40;2.50;;;1.90;87.50;;;;;;5025401;28;20029;-86
2021/03/07 07:29:48;;;;;;;4.03;2.15;;;1.90;87.60;;;;;;5052573;28;20029;-87
2021/03/07 07:32:34;;;;;;;4.68;2.03;;;2.00;87.80;;;;;;5051412;28;20040;-86
2021/03/07 07:35:18;;;;;;;2.92;1.65;;;2.00;87.80;;;;;;5038109;28;20035;-87
2021/03/07 07:37:53;;;;;;;3.50;1.98;;;2.10;88.00;;;;;;5052906;28;20021;-87
2021/03/07 07:40:30;;;;;;;3.08;1.75;;;2.00;87.90;;;;;;5052365;28;20040;-87
2021/03/07 07:42:57;;;;;;;3.63;2.00;;;2.10;88.00;;;;;;5052587;28;20037;-86
2021/03/07 07:45:23;;;;;;;3.25;1.80;;;2.10;88.20;;;;;;5024473;28;20030;-87
2021/03/07 07:47:56;;;;;;;3.65;2.13;;;2.20;88.30;;;;;;5000862;28;20473;-86
2021/03/07 07:50:34;;;;;;;2.95;1.60;;;2.20;88.40;;;;;;5052008;28;20385;-87
2021/03/07 07:53:11;;;;;;;3.22;1.90;;;2.20;88.50;;;;;;5052128;28;20028;-87
2021/03/07 07:55:46;;;;;;;3.50;1.92;;;2.30;88.70;;;;;;5052430;28;20028;-86
2021/03/07 07:58:39;;;;;;;4.38;2.10;;;2.40;88.80;;;;;;5052229;28;20024;-87
2021/03/07 08:01:07;;;;;;;3.53;2.20;;;2.40;88.90;;;;;;5024366;28;20048;-86
2021/03/07 08:03:34;;;;;;;3.33;2.10;;;2.40;88.90;;;;;;5020307;28;20061;-86
2021/03/07 08:06:02;;;;;;;4.60;2.08;;;2.50;89.10;;;;;;5023042;28;20037;-86
2021/03/07 08:08:39;;;;;;;3.85;2.10;;;2.50;89.30;;;;;;5034059;28;20044;-86
2021/03/07 08:11:26;;;;;;;3.35;2.10;;;2.60;89.30;;;;;;5051899;28;20052;-86
2021/03/07 08:14:15;;;;;;;4.80;2.15;;;2.60;89.40;;;;;;5034275;28;20058;-86
2021/03/07 08:16:43;;;;;;;5.70;2.53;;;2.70;89.60;;;;;;5023587;28;20033;-86
2021/03/07 08:19:11;;;;;;;4.85;2.20;;;2.70;89.60;;;;;;5047791;28;20036;-86
2021/03/07 08:22:03;;;;;;;3.53;2.00;;;2.80;89.70;;;;;;5051632;28;20028;-86
2021/03/07 08:24:46;;;;;;;4.38;2.30;;;2.80;89.80;;;;;;5051170;28;20028;-86
2021/03/07 08:27:33;;;;;;;3.80;2.30;;;2.90;89.80;;;;;;5021848;28;20057;-86
2021/03/07 08:29:59;;;;;;;3.65;2.30;;;3.00;90.00;;;;;;5025137;28;20028;-86
2021/03/07 08:32:39;;;;;;;5.00;2.70;;;3.00;90.00;;;;;;5021062;28;20506;-87
2021/03/07 08:35:25;;;;;;;4.28;2.30;;;3.00;90.00;;;;;;5026510;28;20013;-86
2021/03/07 08:38:15;;;;;;;4.70;2.55;;;3.10;90.00;;;;;;5055629;28;20103;-86
2021/03/07 08:40:57;;;;;;;5.28;2.50;;;3.20;90.10;;;;;;5037527;28;20025;-86
2021/03/07 08:43:22;;;;;;;5.35;2.63;;;3.20;90.10;;;;;;5055320;28;20119;-86
2021/03/07 08:46:02;;;;;;;5.38;2.75;;;3.30;90.10;;;;;;5027244;28;20133;-85
2021/03/07 08:48:29;;;;;;;4.57;2.35;;;3.30;90.10;;;;;;5052724;28;20391;-86
2021/03/07 08:50:55;;;;;;;7.45;2.72;;;3.40;90.20;;;;;;5037233;28;20499;-86
2021/03/07 08:53:26;;;;;;;5.90;2.65;;;3.40;90.10;;;;;;5054804;28;20025;-86
2021/03/07 08:55:52;;;;;;;6.53;2.50;;;3.40;90.10;;;;;;5053620;28;20423;-86
2021/03/07 08:58:18;;;;;;;4.40;2.50;;;3.50;90.10;;;;;;5051565;28;20256;-86
2021/03/07 09:00:50;;;;;;;4.85;2.80;;;3.50;90.10;;;;;;5013022;28;20070;-86
2021/03/07 09:03:16;;;;;;;6.47;3.03;;;3.60;90.20;;;;;;5036483;28;20075;-85
2021/03/07 09:05:43;;;;;;;5.75;2.60;;;3.60;90.20;;;;;;5020155;28;20083;-85
2021/03/07 09:08:08;;;;;;;4.78;2.75;;;3.70;90.20;;;;;;5037442;28;20412;-85
2021/03/07 09:10:43;;;;;;;5.68;2.92;;;3.70;90.10;;;;;;5054559;28;20025;-86
2021/03/07 09:13:12;;;;;;;4.85;2.67;;;3.70;90.10;;;;;;5042832;28;20056;-86
2021/03/07 09:15:40;;;;;;;5.38;3.17;;;3.80;90.10;;;;;;5032925;28;20075;-86
2021/03/07 09:18:06;;;;;;;5.03;2.90;;;3.80;90.00;;;;;;5045488;28;20070;-85
2021/03/07 09:20:50;;;;;;;4.60;2.53;;;3.80;89.90;;;;;;5052175;28;20385;-86
2021/03/07 09:23:27;;;;;;;5.75;2.65;;;3.90;89.70;;;;;;5025201;28;20834;-85
2021/03/07 09:25:54;;;;;;;4.65;2.75;;;3.90;89.60;;;;;;5048853;28;20033;-85
2021/03/07 09:28:28;;;;;;;5.82;2.90;;;4.00;89.60;;;;;;5043490;28;20026;-85
2021/03/07 09:30:56;;;;;;;4.35;2.40;;;4.00;89.60;;;;;;5043979;28;20474;-85
2021/03/07 09:33:22;;;;;;;3.78;2.63;;;4.00;89.50;;;;;;5043273;28;20401;-85
2021/03/07 09:35:47;;;;;;;5.20;2.40;;;4.10;89.20;;;;;;5042577;28;20025;-86
2021/03/07 09:38:15;;;;;;;4.40;2.63;;;4.20;88.10;;;;;;5024849;28;20034;-86
2021/03/07 09:40:44;;;;;;;3.30;2.03;;;4.30;85.90;;;;;;5000285;28;20029;-83
2021/03/07 09:43:11;;;;;;;4.60;2.10;;;4.30;86.00;;;;;;5000318;28;20060;-85
2021/03/07 09:45:48;;;;;;;3.90;1.95;;;4.30;86.10;;;;;;5019201;28;20021;-85
2021/03/07 09:48:15;;;;;;;3.80;1.70;;;4.40;86.00;;;;;;5023586;28;20500;-85
2021/03/07 09:50:42;;;;;;;1.90;1.42;;;4.50;86.10;;;;;;5038052;28;20025;-86
2021/03/07 09:53:08;;;;;;;2.50;1.60;;;4.60;85.70;;;;;;5045267;28;20033;-85
2021/03/07 09:55:35;;;;;;;2.80;1.50;;;4.70;84.20;;;;;;5024198;28;20394;-83
2021/03/07 09:58:02;;;;;;;3.40;1.50;;;4.80;82.20;;;;;;5019886;28;20485;-83
2021/03/07 10:00:36;;;;;;;2.38;1.60;;;4.80;82.50;;;;;;5039752;28;20025;-84
2021/03/07 10:03:03;;;;;;;3.22;1.48;;;4.90;82.40;;;;;;5033919;28;20085;-84
2021/03/07 10:05:29;;;;;;;3.10;1.70;;;5.00;82.70;;;;;;5008057;28;20402;-84
2021/03/07 10:07:54;;;;;;;3.78;1.55;;;5.00;82.30;;;;;;5022492;28;20111;-84
2021/03/07 10:10:23;;;;;;;4.80;2.08;;;5.10;82.40;;;;;;5001859;28;20481;-84
2021/03/07 10:12:50;;;;;;;3.22;1.50;;;5.20;82.30;;;;;;5023057;28;20519;-84
2021/03/07 10:15:27;;;;;;;3.38;1.50;;;5.20;81.70;;;;;;5042031;28;20024;-84
2021/03/07 10:17:55;;;;;;;3.53;2.03;;;5.30;80.80;;;;;;5026757;28;20409;-83
2021/03/07 10:20:21;;;;;;;3.20;1.80;;;5.40;79.30;;;;;;5039934;28;20029;-84
2021/03/07 10:22:49;;;;;;;2.97;1.48;;;5.40;77.60;;;;;;5013582;28;20545;-85
2021/03/07 10:25:29;;;;;;;3.58;1.55;;;5.50;77.20;;;;;;5042913;28;20024;-84
2021/03/07 10:28:04;;;;;;;2.28;1.40;;;5.50;76.20;;;;;;5046613;28;20074;-83
2021/03/07 10:30:36;;;;;;;3.55;1.77;;;5.50;76.40;;;;;;5036324;28;20045;-84
2021/03/07 10:33:24;;;;;;;2.10;1.38;;;5.60;75.70;;;;;;5012882;28;20033;-84
2021/03/07 10:36:04;;;;;;;2.70;1.75;;;5.70;76.30;;;;;;5014150;28;20021;-83
2021/03/07 10:38:32;;;;;;;2.72;1.13;;;5.70;75.50;;;;;;5031182;28;20530;-84
2021/03/07 10:40:58;;;;;;;2.67;1.27;;;5.80;75.40;;;;;;5046128;28;20028;-83
2021/03/07 10:43:24;;;;;;;1.50;1.05;;;5.90;75.60;;;;;;5017066;28;20026;-83
2021/03/07 10:45:51;;;;;;;1.88;1.20;;;5.90;75.70;;;;;;5040464;28;20036;-84
2021/03/07 10:48:17;;;;;;;3.28;1.33;;;6.00;75.40;;;;;;5037921;28;20032;-84
2021/03/07 10:50:48;;;;;;;2.85;1.35;;;6.10;74.80;;;;;;5033249;28;20041;-84
2021/03/07 10:53:16;;;;;;;2.95;1.40;;;6.20;74.70;;;;;;5014935;28;20025;-84
2021/03/07 10:55:49;;;;;;;1.45;1.13;;;6.30;74.10;;;;;;5034944;28;20136;-85
2021/03/07 10:58:15;;;;;;;3.55;1.27;;;6.40;74.50;;;;;;5024022;28;20366;-84
2021/03/07 11:00:40;;;;;;;1.52;1.10;;;6.40;74.50;;;;;;5024263;28;20046;-82
2021/03/07 11:03:06;;;;;;;3.50;1.45;;;6.50;75.00;;;;;;5029033;28;20083;-83
2021/03/07 11:05:32;;;;;;;3.17;1.27;;;6.60;74.40;;;;;;4998206;28;20103;-82
2021/03/07 11:07:57;;;;;;;3.22;1.70;;;6.70;74.50;;;;;;5015472;28;20032;-82
2021/03/07 11:10:23;;;;;;;1.13;1.00;;;6.80;74.20;;;;;;5015446;28;20109;-83
2021/03/07 11:12:49;;;;;;;2.33;1.40;;;6.90;73.10;;;;;;5042637;28;20076;-84
2021/03/07 11:15:16;;;;;;;2.13;1.20;;;7.00;71.60;;;;;;5036544;28;20095;-84
2021/03/07 11:17:41;;;;;;;1.52;1.10;;;7.10;71.10;;;;;;5014539;28;20037;-84
2021/03/07 11:20:09;;;;;;;1.50;1.10;;;7.20;71.70;;;;;;4998734;28;20033;-85
2021/03/07 11:22:35;;;;;;;2.05;1.23;;;7.30;72.00;;;;;;5012884;28;20041;-84
2021/03/07 11:25:01;;;;;;;1.40;0.90;;;7.40;71.00;;;;;;4997988;28;20025;-85
2021/03/07 11:27:27;;;;;;;1.88;1.00;;;7.60;71.40;;;;;;5010675;28;20478;-84
2021/03/07 11:29:53;;;;;;;2.55;1.20;;;7.70;71.20;;;;;;4998790;28;20087;-87
2021/03/07 11:32:18;;;;;;;2.40;1.15;;;7.80;71.50;;;;;;4983025;28;20036;-88
2021/03/07 11:34:44;;;;;;;2.20;1.00;;;7.90;71.50;;;;;;5031852;28;20079;-86
2021/03/07 11:37:09;;;;;;;2.55;1.02;;;8.10;71.20;;;;;;5015392;28;20029;-86
2021/03/07 11:39:35;;;;;;;3.13;1.00;;;8.20;70.80;;;;;;5015436;28;20033;-86
2021/03/07 11:42:01;;;;;;;4.30;1.42;;;8.20;70.70;;;;;;5015801;28;20594;-86
2021/03/07 11:44:26;;;;;;;4.40;1.85;;;8.30;70.00;;;;;;4999640;28;20045;-85
2021/03/07 11:46:53;;;;;;;2.40;1.08;;;8.30;69.60;;;;;;4999822;28;20030;-84
2021/03/07 11:49:22;;;;;;;1.92;1.05;;;8.40;69.60;;;;;;5014999;28;20383;-85
2021/03/07 11:51:48;;;;;;;2.80;1.08;;;8.50;69.30;;;;;;4999030;28;20032;-85
2021/03/07 11:54:14;;;;;;;3.28;1.50;;;8.50;68.90;;;;;;5014937;28;20062;-86
2021/03/07 11:56:40;;;;;;;3.88;2.00;;;8.50;68.60;;;;;;5012549;28;20033;-87
2021/03/07 11:59:06;;;;;;;3.15;1.70;;;8.60;67.40;;;;;;5031214;28;20075;-86
2021/03/07 12:01:32;;;;;;;2.47;1.35;;;8.60;67.60;;;;;;5032413;28;20389;-87
2021/03/07 12:03:58;;;;;;;1.77;1.13;;;8.60;67.40;;;;;;5015397;28;20033;-86
2021/03/07 12:06:24;;;;;;;3.75;1.65;;;8.60;67.20;;;;;;5000667;28;20050;-87
2021/03/07 12:08:50;;;;;;;1.95;1.25;;;8.70;66.00;;;;;;5027946;28;20378;-85
2021/03/07 12:11:17;;;;;;;1.52;1.23;;;8.70;62.60;;;;;;5029003;28;20037;-90
2021/03/07 12:13:43;;;;;;;2.90;1.25;;;8.80;64.00;;;;;;4998468;28;20120;-88
2021/03/07 12:16:08;;;;;;;3.17;1.27;;;8.80;64.90;;;;;;4998328;28;20116;-85
2021/03/07 12:18:38;;;;;;;1.33;1.10;;;8.90;65.40;;;;;;4982955;28;20480;-89
2021/03/07 12:21:05;;;;;;;2.08;1.20;;;8.90;65.80;;;;;;4983277;28;20041;-88
2021/03/07 12:23:31;;;;;;;2.20;1.40;;;9.00;66.10;;;;;;4999037;28;20030;-88
2021/03/07 12:25:57;;;;;;;2.58;1.40;;;9.00;65.10;;;;;;5015342;28;20036;-89
2021/03/07 12:28:23;;;;;;;1.90;1.35;;;9.10;64.90;;;;;;4998758;28;20033;-88
2021/03/07 12:30:49;;;;;;;2.53;1.40;;;9.10;64.70;;;;;;4998535;28;20037;-88
2021/03/07 12:33:14;;;;;;;1.85;0.93;;;9.20;64.90;;;;;;5015380;28;20432;-87
2021/03/07 12:35:40;;;;;;;2.92;1.30;;;9.20;64.60;;;;;;5016433;28;20038;-89
2021/03/07 12:38:06;;;;;;;4.72;2.08;;;9.20;63.80;;;;;;5015630;28;20056;-88
2021/03/07 12:40:31;;;;;;;3.22;1.48;;;9.30;62.60;;;;;;5033347;28;20080;-88
2021/03/07 12:42:57;;;;;;;1.83;1.23;;;9.20;62.30;;;;;;5018334;28;20053;-89
2021/03/07 12:45:23;;;;;;;3.90;1.25;;;9.30;61.70;;;;;;5015621;28;20029;-89
2021/03/07 12:47:48;;;;;;;1.63;1.05;;;9.30;62.10;;;;;;4999601;28;20037;-88
2021/03/07 12:50:14;;;;;;;2.33;1.25;;;9.30;62.20;;;;;;4982241;28;20021;-86
2021/03/07 12:52:40;;;;;;;2.33;1.20;;;9.30;61.40;;;;;;5015444;28;20032;-88
2021/03/07 12:55:06;;;;;;;3.15;1.30;;;9.40;61.40;;;;;;5015253;28;20037;-88
2021/03/07 12:57:32;;;;;;;4.18;1.30;;;9.40;62.00;;;;;;4998990;28;20025;-89
2021/03/07 12:59:58;;;;;;;4.65;1.55;;;9.40;62.50;;;;;;5015143;28;20105;-88
2021/03/07 13:02:23;;;;;;;2.38;1.40;;;9.40;62.70;;;;;;5015740;28;20124;-89
2021/03/07 13:04:49;;;;;;;1.73;1.33;;;9.50;62.50;;;;;;5026377;28;20096;-89